sensor_id;sensor_type;location;lat;lon;timestamp;temperature;humidity
20750;DHT22;10535;50.664;4.564;2023-12-29T00:01:44;10.80;99.90
20750;DHT22;10535;50.664;4.564;2023-12-29T00:04:38;10.80;99.90
20750;DHT22;10535;50.664;4.564;2023-12-29T00:08:06;10.70;99.90
20750;DHT22;10535;50.664;4.564;2023-12-29T00:10:40;10.80;99.90
20750;DHT22;10535;50.664;4.564;2023-12-29T00:13:26;10.70;99.90
20750;DHT22;10535;50.664;4.564;2023-12-29T00:16:20;10.80;99.90
20750;DHT22;10535;50.664;4.564;2023-12-29T00:19:38;10.70;99.90
20750;DHT22;10535;50.664;4.564;2023-12-29T00:22:20;10.80;99.90
20750;DHT22;10535;50.664;4.564;2023-12-29T00:24:47;10.90;99.90
20750;DHT22;10535;50.664;4.564;2023-12-29T00:27:16;10.80;99.90
20750;DHT22;10535;50.664;4.564;2023-12-29T00:29:45;10.80;99.90
20750;DHT22;10535;50.664;4.564;2023-12-29T00:32:11;10.80;99.90
20750;DHT22;10535;50.664;4.564;2023-12-29T00:34:40;10.90;99.90
20750;DHT22;10535;50.664;4.564;2023-12-29T00:37:09;10.90;99.90
20750;DHT22;10535;50.664;4.564;2023-12-29T00:39:38;10.90;99.90
20750;DHT22;10535;50.664;4.564;2023-12-29T00:42:12;10.70;99.90
20750;DHT22;10535;50.664;4.564;2023-12-29T00:44:38;10.70;99.90
20750;DHT22;10535;50.664;4.564;2023-12-29T00:47:07;10.70;99.90
20750;DHT22;10535;50.664;4.564;2023-12-29T00:50:06;10.80;99.90
20750;DHT22;10535;50.664;4.564;2023-12-29T00:52:54;10.80;99.90
20750;DHT22;10535;50.664;4.564;2023-12-29T00:55:19;10.80;99.90
20750;DHT22;10535;50.664;4.564;2023-12-29T00:57:46;10.80;99.90
20750;DHT22;10535;50.664;4.564;2023-12-29T01:00:13;10.80;99.90
20750;DHT22;10535;50.664;4.564;2023-12-29T01:02:39;10.80;99.90
20750;DHT22;10535;50.664;4.564;2023-12-29T01:05:05;10.70;99.90
20750;DHT22;10535;50.664;4.564;2023-12-29T01:07:31;10.80;99.90
20750;DHT22;10535;50.664;4.564;2023-12-29T01:09:58;10.80;99.90
20750;DHT22;10535;50.664;4.564;2023-12-29T01:12:25;10.80;99.90
20750;DHT22;10535;50.664;4.564;2023-12-29T01:15:06;10.90;99.90
20750;DHT22;10535;50.664;4.564;2023-12-29T01:17:32;10.90;99.90
20750;DHT22;10535;50.664;4.564;2023-12-29T01:19:58;10.90;99.90
20750;DHT22;10535;50.664;4.564;2023-12-29T01:22:24;10.80;99.90
20750;DHT22;10535;50.664;4.564;2023-12-29T01:24:50;10.80;99.90
20750;DHT22;10535;50.664;4.564;2023-12-29T01:27:15;10.80;99.90
20750;DHT22;10535;50.664;4.564;2023-12-29T01:29:41;10.70;99.90
20750;DHT22;10535;50.664;4.564;2023-12-29T01:32:07;10.70;99.90
20750;DHT22;10535;50.664;4.564;2023-12-29T01:34:36;10.90;99.90
20750;DHT22;10535;50.664;4.564;2023-12-29T01:37:03;10.90;99.90
20750;DHT22;10535;50.664;4.564;2023-12-29T01:39:36;10.90;99.90
20750;DHT22;10535;50.664;4.564;2023-12-29T01:42:10;10.90;99.90
20750;DHT22;10535;50.664;4.564;2023-12-29T01:44:39;10.90;99.90
20750;DHT22;10535;50.664;4.564;2023-12-29T01:47:14;10.90;99.90
20750;DHT22;10535;50.664;4.564;2023-12-29T01:49:46;10.90;99.90
20750;DHT22;10535;50.664;4.564;2023-12-29T01:52:30;10.90;99.90
20750;DHT22;10535;50.664;4.564;2023-12-29T01:54:56;11.00;99.90
20750;DHT22;10535;50.664;4.564;2023-12-29T01:57:24;11.00;99.90
20750;DHT22;10535;50.664;4.564;2023-12-29T01:59:53;11.00;99.90
20750;DHT22;10535;50.664;4.564;2023-12-29T02:02:20;10.90;99.90
20750;DHT22;10535;50.664;4.564;2023-12-29T02:05:08;10.90;99.90
20750;DHT22;10535;50.664;4.564;2023-12-29T02:07:36;10.80;99.90
20750;DHT22;10535;50.664;4.564;2023-12-29T02:10:20;10.90;99.90
20750;DHT22;10535;50.664;4.564;2023-12-29T02:12:59;10.90;99.90
20750;DHT22;10535;50.664;4.564;2023-12-29T02:15:45;10.90;99.90
20750;DHT22;10535;50.664;4.564;2023-12-29T02:18:16;10.90;99.90
20750;DHT22;10535;50.664;4.564;2023-12-29T02:20:50;10.90;99.90
20750;DHT22;10535;50.664;4.564;2023-12-29T02:23:19;10.80;99.90
20750;DHT22;10535;50.664;4.564;2023-12-29T02:26:01;11.00;99.90
20750;DHT22;10535;50.664;4.564;2023-12-29T02:28:30;11.10;99.90
20750;DHT22;10535;50.664;4.564;2023-12-29T02:31:19;11.00;99.90
20750;DHT22;10535;50.664;4.564;2023-12-29T02:34:28;11.10;99.90
20750;DHT22;10535;50.664;4.564;2023-12-29T02:37:14;11.10;99.90
20750;DHT22;10535;50.664;4.564;2023-12-29T02:40:00;11.10;99.90
20750;DHT22;10535;50.664;4.564;2023-12-29T02:42:26;11.00;99.90
20750;DHT22;10535;50.664;4.564;2023-12-29T02:44:52;11.00;99.90
20750;DHT22;10535;50.664;4.564;2023-12-29T02:47:20;11.00;99.90
20750;DHT22;10535;50.664;4.564;2023-12-29T02:49:47;11.00;99.90
20750;DHT22;10535;50.664;4.564;2023-12-29T02:52:16;11.10;99.90
20750;DHT22;10535;50.664;4.564;2023-12-29T02:54:42;11.00;99.90
20750;DHT22;10535;50.664;4.564;2023-12-29T02:57:07;11.00;99.90
20750;DHT22;10535;50.664;4.564;2023-12-29T02:59:33;11.00;99.90
20750;DHT22;10535;50.664;4.564;2023-12-29T03:02:21;11.10;99.90
20750;DHT22;10535;50.664;4.564;2023-12-29T03:04:47;11.10;99.90
20750;DHT22;10535;50.664;4.564;2023-12-29T03:07:14;11.10;99.90
20750;DHT22;10535;50.664;4.564;2023-12-29T03:09:40;11.10;99.90
20750;DHT22;10535;50.664;4.564;2023-12-29T03:12:28;11.00;99.90
20750;DHT22;10535;50.664;4.564;2023-12-29T03:15:20;11.10;99.90
20750;DHT22;10535;50.664;4.564;2023-12-29T03:17:52;11.20;99.90
20750;DHT22;10535;50.664;4.564;2023-12-29T03:20:24;11.10;99.90
20750;DHT22;10535;50.664;4.564;2023-12-29T03:22:51;11.00;99.90
20750;DHT22;10535;50.664;4.564;2023-12-29T03:25:17;11.00;99.90
20750;DHT22;10535;50.664;4.564;2023-12-29T03:27:46;11.00;99.90
20750;DHT22;10535;50.664;4.564;2023-12-29T03:30:33;11.00;99.90
20750;DHT22;10535;50.664;4.564;2023-12-29T03:33:08;11.10;99.90
20750;DHT22;10535;50.664;4.564;2023-12-29T03:35:35;11.10;99.90
20750;DHT22;10535;50.664;4.564;2023-12-29T03:38:08;10.90;99.90
20750;DHT22;10535;50.664;4.564;2023-12-29T03:40:54;10.90;99.90
20750;DHT22;10535;50.664;4.564;2023-12-29T03:43:20;11.00;99.90
20750;DHT22;10535;50.664;4.564;2023-12-29T03:45:49;11.10;99.90
20750;DHT22;10535;50.664;4.564;2023-12-29T03:48:37;11.10;99.90
20750;DHT22;10535;50.664;4.564;2023-12-29T03:51:14;11.00;99.90
20750;DHT22;10535;50.664;4.564;2023-12-29T03:53:59;11.00;99.90
20750;DHT22;10535;50.664;4.564;2023-12-29T03:56:32;11.00;99.90
20750;DHT22;10535;50.664;4.564;2023-12-29T03:58:58;11.10;99.90
20750;DHT22;10535;50.664;4.564;2023-12-29T04:02:06;11.20;99.90
20750;DHT22;10535;50.664;4.564;2023-12-29T04:04:38;11.10;99.90
20750;DHT22;10535;50.664;4.564;2023-12-29T04:07:13;11.10;99.90
20750;DHT22;10535;50.664;4.564;2023-12-29T04:10:09;11.20;99.90
20750;DHT22;10535;50.664;4.564;2023-12-29T04:12:55;11.20;99.90
20750;DHT22;10535;50.664;4.564;2023-12-29T04:15:51;11.10;99.90
20750;DHT22;10535;50.664;4.564;2023-12-29T04:18:44;11.10;99.90
20750;DHT22;10535;50.664;4.564;2023-12-29T04:21:36;11.10;99.90
20750;DHT22;10535;50.664;4.564;2023-12-29T04:24:10;11.40;99.90
20750;DHT22;10535;50.664;4.564;2023-12-29T04:27:14;11.40;99.90
20750;DHT22;10535;50.664;4.564;2023-12-29T04:30:20;11.30;99.90
20750;DHT22;10535;50.664;4.564;2023-12-29T04:33:16;11.30;99.90
20750;DHT22;10535;50.664;4.564;2023-12-29T04:36:07;11.20;99.90
20750;DHT22;10535;50.664;4.564;2023-12-29T04:38:55;11.30;99.90
20750;DHT22;10535;50.664;4.564;2023-12-29T04:41:30;11.30;99.90
20750;DHT22;10535;50.664;4.564;2023-12-29T04:43:56;11.30;99.90
20750;DHT22;10535;50.664;4.564;2023-12-29T04:46:22;11.20;99.90
20750;DHT22;10535;50.664;4.564;2023-12-29T04:48:50;11.00;99.90
20750;DHT22;10535;50.664;4.564;2023-12-29T04:51:16;11.10;99.90
20750;DHT22;10535;50.664;4.564;2023-12-29T04:53:45;11.10;99.90
20750;DHT22;10535;50.664;4.564;2023-12-29T04:56:21;11.00;99.90
20750;DHT22;10535;50.664;4.564;2023-12-29T04:58:47;11.00;99.90
20750;DHT22;10535;50.664;4.564;2023-12-29T05:01:16;11.00;99.90
20750;DHT22;10535;50.664;4.564;2023-12-29T05:03:44;11.00;99.90
20750;DHT22;10535;50.664;4.564;2023-12-29T05:06:33;10.90;99.90
20750;DHT22;10535;50.664;4.564;2023-12-29T05:09:14;10.90;99.90
20750;DHT22;10535;50.664;4.564;2023-12-29T05:11:50;11.00;99.90
20750;DHT22;10535;50.664;4.564;2023-12-29T05:14:16;10.90;99.90
20750;DHT22;10535;50.664;4.564;2023-12-29T05:16:44;10.90;99.90
20750;DHT22;10535;50.664;4.564;2023-12-29T05:19:22;11.00;99.90
20750;DHT22;10535;50.664;4.564;2023-12-29T05:22:00;10.90;99.90
20750;DHT22;10535;50.664;4.564;2023-12-29T05:24:25;10.90;99.90
20750;DHT22;10535;50.664;4.564;2023-12-29T05:26:51;11.00;99.90
20750;DHT22;10535;50.664;4.564;2023-12-29T05:29:43;11.00;99.90
20750;DHT22;10535;50.664;4.564;2023-12-29T05:32:13;11.00;99.90
20750;DHT22;10535;50.664;4.564;2023-12-29T05:34:40;11.00;99.90
20750;DHT22;10535;50.664;4.564;2023-12-29T05:37:05;11.00;99.90
20750;DHT22;10535;50.664;4.564;2023-12-29T05:39:45;10.80;99.90
20750;DHT22;10535;50.664;4.564;2023-12-29T05:42:34;10.80;99.90
20750;DHT22;10535;50.664;4.564;2023-12-29T05:45:00;11.00;99.90
20750;DHT22;10535;50.664;4.564;2023-12-29T05:47:48;11.00;99.90
20750;DHT22;10535;50.664;4.564;2023-12-29T05:50:37;11.00;99.90
20750;DHT22;10535;50.664;4.564;2023-12-29T05:53:33;11.00;99.90
20750;DHT22;10535;50.664;4.564;2023-12-29T05:56:00;11.10;99.90
20750;DHT22;10535;50.664;4.564;2023-12-29T05:58:41;11.10;99.90
20750;DHT22;10535;50.664;4.564;2023-12-29T06:01:30;11.10;99.90
20750;DHT22;10535;50.664;4.564;2023-12-29T06:04:11;11.00;99.90
20750;DHT22;10535;50.664;4.564;2023-12-29T06:06:37;11.00;99.90
20750;DHT22;10535;50.664;4.564;2023-12-29T06:09:03;11.00;99.90
20750;DHT22;10535;50.664;4.564;2023-12-29T06:11:33;10.90;99.90
20750;DHT22;10535;50.664;4.564;2023-12-29T06:13:59;10.90;99.90
20750;DHT22;10535;50.664;4.564;2023-12-29T06:16:24;10.80;99.90
20750;DHT22;10535;50.664;4.564;2023-12-29T06:19:15;10.70;99.90
20750;DHT22;10535;50.664;4.564;2023-12-29T06:22:14;10.70;99.90
20750;DHT22;10535;50.664;4.564;2023-12-29T06:27:50;10.40;99.90
20750;DHT22;10535;50.664;4.564;2023-12-29T06:36:42;10.30;99.90
20750;DHT22;10535;50.664;4.564;2023-12-29T06:52:25;10.10;99.90
20750;DHT22;10535;50.664;4.564;2023-12-29T06:57:40;9.90;99.90
20750;DHT22;10535;50.664;4.564;2023-12-29T07:03:01;9.90;99.90
20750;DHT22;10535;50.664;4.564;2023-12-29T07:05:45;9.90;99.90
20750;DHT22;10535;50.664;4.564;2023-12-29T07:09:09;10.00;99.90
20750;DHT22;10535;50.664;4.564;2023-12-29T07:12:16;10.00;99.90
20750;DHT22;10535;50.664;4.564;2023-12-29T07:15:27;10.10;99.90
20750;DHT22;10535;50.664;4.564;2023-12-29T07:18:41;10.20;99.90
20750;DHT22;10535;50.664;4.564;2023-12-29T07:21:45;10.00;99.90
20750;DHT22;10535;50.664;4.564;2023-12-29T08:06:56;10.30;99.90
20750;DHT22;10535;50.664;4.564;2023-12-29T08:09:21;10.30;99.90
20750;DHT22;10535;50.664;4.564;2023-12-29T08:11:49;10.40;99.90
20750;DHT22;10535;50.664;4.564;2023-12-29T08:49:07;10.60;99.90
20750;DHT22;10535;50.664;4.564;2023-12-29T09:10:09;10.60;99.90
20750;DHT22;10535;50.664;4.564;2023-12-29T09:12:39;10.60;99.90
20750;DHT22;10535;50.664;4.564;2023-12-29T09:18:02;10.80;99.90
20750;DHT22;10535;50.664;4.564;2023-12-29T09:20:35;10.70;99.90
20750;DHT22;10535;50.664;4.564;2023-12-29T09:25:39;10.90;99.90
20750;DHT22;10535;50.664;4.564;2023-12-29T09:28:14;10.90;99.90
20750;DHT22;10535;50.664;4.564;2023-12-29T09:30:58;10.90;99.90
20750;DHT22;10535;50.664;4.564;2023-12-29T09:46:32;11.00;99.90
20750;DHT22;10535;50.664;4.564;2023-12-29T09:49:02;11.10;99.90
20750;DHT22;10535;50.664;4.564;2023-12-29T09:51:32;11.20;99.90
20750;DHT22;10535;50.664;4.564;2023-12-29T09:54:10;11.00;99.90
20750;DHT22;10535;50.664;4.564;2023-12-29T09:56:46;11.10;99.90
20750;DHT22;10535;50.664;4.564;2023-12-29T09:59:41;11.10;99.90
20750;DHT22;10535;50.664;4.564;2023-12-29T10:03:13;11.10;99.90
20750;DHT22;10535;50.664;4.564;2023-12-29T11:11:12;11.30;99.90
20750;DHT22;10535;50.664;4.564;2023-12-29T11:14:23;11.30;99.90
20750;DHT22;10535;50.664;4.564;2023-12-29T11:17:12;11.30;99.90
20750;DHT22;10535;50.664;4.564;2023-12-29T11:19:45;11.30;99.90
20750;DHT22;10535;50.664;4.564;2023-12-29T11:24:47;11.40;99.90
20750;DHT22;10535;50.664;4.564;2023-12-29T11:27:15;11.40;99.90
20750;DHT22;10535;50.664;4.564;2023-12-29T11:30:09;11.60;99.90
20750;DHT22;10535;50.664;4.564;2023-12-29T11:35:55;11.50;99.90
20750;DHT22;10535;50.664;4.564;2023-12-29T11:38:54;11.40;99.90
20750;DHT22;10535;50.664;4.564;2023-12-29T11:44:02;11.40;99.90
20750;DHT22;10535;50.664;4.564;2023-12-29T11:46:38;11.50;99.90
20750;DHT22;10535;50.664;4.564;2023-12-29T11:49:11;11.60;99.90
20750;DHT22;10535;50.664;4.564;2023-12-29T11:51:44;11.60;99.90
20750;DHT22;10535;50.664;4.564;2023-12-29T11:54:30;11.80;99.90
20750;DHT22;10535;50.664;4.564;2023-12-29T11:56:57;11.70;99.90
20750;DHT22;10535;50.664;4.564;2023-12-29T11:59:24;11.80;99.90
20750;DHT22;10535;50.664;4.564;2023-12-29T12:01:55;11.80;99.90
20750;DHT22;10535;50.664;4.564;2023-12-29T12:04:44;11.80;99.90
20750;DHT22;10535;50.664;4.564;2023-12-29T12:07:17;11.90;99.90
20750;DHT22;10535;50.664;4.564;2023-12-29T12:09:43;11.90;99.90
20750;DHT22;10535;50.664;4.564;2023-12-29T12:12:10;11.80;99.90
20750;DHT22;10535;50.664;4.564;2023-12-29T12:18:11;11.60;99.90
20750;DHT22;10535;50.664;4.564;2023-12-29T12:20:38;11.70;99.90
20750;DHT22;10535;50.664;4.564;2023-12-29T12:23:17;11.80;99.90
20750;DHT22;10535;50.664;4.564;2023-12-29T12:25:44;11.80;99.90
20750;DHT22;10535;50.664;4.564;2023-12-29T12:28:14;11.80;99.90
20750;DHT22;10535;50.664;4.564;2023-12-29T12:30:40;11.80;99.90
20750;DHT22;10535;50.664;4.564;2023-12-29T12:33:06;11.70;99.90
20750;DHT22;10535;50.664;4.564;2023-12-29T12:35:36;11.70;99.90
20750;DHT22;10535;50.664;4.564;2023-12-29T12:38:15;11.60;99.90
20750;DHT22;10535;50.664;4.564;2023-12-29T12:40:47;11.70;99.90
20750;DHT22;10535;50.664;4.564;2023-12-29T12:43:14;11.80;99.90
20750;DHT22;10535;50.664;4.564;2023-12-29T12:45:46;11.80;99.90
20750;DHT22;10535;50.664;4.564;2023-12-29T12:51:13;11.70;99.90
20750;DHT22;10535;50.664;4.564;2023-12-29T12:53:42;11.70;99.90
20750;DHT22;10535;50.664;4.564;2023-12-29T12:56:11;11.60;99.90
20750;DHT22;10535;50.664;4.564;2023-12-29T12:58:37;11.40;99.90
20750;DHT22;10535;50.664;4.564;2023-12-29T13:01:05;11.30;99.90
20750;DHT22;10535;50.664;4.564;2023-12-29T13:03:31;11.30;99.90
20750;DHT22;10535;50.664;4.564;2023-12-29T13:05:59;11.20;99.90
20750;DHT22;10535;50.664;4.564;2023-12-29T13:08:35;11.20;99.90
20750;DHT22;10535;50.664;4.564;2023-12-29T13:11:11;11.20;99.90
20750;DHT22;10535;50.664;4.564;2023-12-29T13:13:41;11.20;99.90
20750;DHT22;10535;50.664;4.564;2023-12-29T13:16:08;11.40;99.90
20750;DHT22;10535;50.664;4.564;2023-12-29T13:18:34;11.40;99.90
20750;DHT22;10535;50.664;4.564;2023-12-29T13:21:01;11.30;99.90
20750;DHT22;10535;50.664;4.564;2023-12-29T13:23:30;11.40;99.90
20750;DHT22;10535;50.664;4.564;2023-12-29T13:26:04;11.30;99.90
20750;DHT22;10535;50.664;4.564;2023-12-29T13:28:39;11.30;99.90
20750;DHT22;10535;50.664;4.564;2023-12-29T13:31:30;11.30;99.90
20750;DHT22;10535;50.664;4.564;2023-12-29T13:34:03;11.30;99.90
20750;DHT22;10535;50.664;4.564;2023-12-29T13:36:52;11.10;99.90
20750;DHT22;10535;50.664;4.564;2023-12-29T13:39:41;11.10;99.90
20750;DHT22;10535;50.664;4.564;2023-12-29T13:42:09;11.20;99.90
20750;DHT22;10535;50.664;4.564;2023-12-29T13:44:38;11.20;99.90
20750;DHT22;10535;50.664;4.564;2023-12-29T13:47:05;11.30;99.90
20750;DHT22;10535;50.664;4.564;2023-12-29T13:49:32;11.30;99.90
20750;DHT22;10535;50.664;4.564;2023-12-29T13:52:03;11.30;99.90
20750;DHT22;10535;50.664;4.564;2023-12-29T13:54:30;11.30;99.90
20750;DHT22;10535;50.664;4.564;2023-12-29T13:56:56;11.30;99.90
20750;DHT22;10535;50.664;4.564;2023-12-29T13:59:31;11.30;99.90
20750;DHT22;10535;50.664;4.564;2023-12-29T14:02:28;11.50;99.90
20750;DHT22;10535;50.664;4.564;2023-12-29T14:08:18;11.40;99.90
20750;DHT22;10535;50.664;4.564;2023-12-29T14:11:29;11.30;99.90
20750;DHT22;10535;50.664;4.564;2023-12-29T14:13:56;11.30;99.90
20750;DHT22;10535;50.664;4.564;2023-12-29T14:16:22;11.50;99.90
20750;DHT22;10535;50.664;4.564;2023-12-29T14:18:54;11.60;99.90
20750;DHT22;10535;50.664;4.564;2023-12-29T14:21:21;11.50;99.90
20750;DHT22;10535;50.664;4.564;2023-12-29T14:24:11;11.50;99.90
20750;DHT22;10535;50.664;4.564;2023-12-29T14:26:55;11.40;99.90
20750;DHT22;10535;50.664;4.564;2023-12-29T14:29:39;11.30;99.90
20750;DHT22;10535;50.664;4.564;2023-12-29T14:32:07;11.30;99.90
20750;DHT22;10535;50.664;4.564;2023-12-29T14:34:33;11.20;99.90
20750;DHT22;10535;50.664;4.564;2023-12-29T14:37:00;11.20;99.90
20750;DHT22;10535;50.664;4.564;2023-12-29T14:39:29;11.40;99.90
20750;DHT22;10535;50.664;4.564;2023-12-29T14:41:57;11.10;99.90
20750;DHT22;10535;50.664;4.564;2023-12-29T14:44:26;11.10;99.90
20750;DHT22;10535;50.664;4.564;2023-12-29T14:46:52;11.10;99.90
20750;DHT22;10535;50.664;4.564;2023-12-29T14:49:41;11.10;99.90
20750;DHT22;10535;50.664;4.564;2023-12-29T14:52:20;11.10;99.90
20750;DHT22;10535;50.664;4.564;2023-12-29T14:54:45;11.10;99.90
20750;DHT22;10535;50.664;4.564;2023-12-29T14:57:11;11.10;99.90
20750;DHT22;10535;50.664;4.564;2023-12-29T14:59:37;11.20;99.90
20750;DHT22;10535;50.664;4.564;2023-12-29T15:02:03;11.20;99.90
20750;DHT22;10535;50.664;4.564;2023-12-29T15:04:32;11.00;99.90
20750;DHT22;10535;50.664;4.564;2023-12-29T15:06:58;11.10;99.90
20750;DHT22;10535;50.664;4.564;2023-12-29T15:09:24;11.20;99.90
20750;DHT22;10535;50.664;4.564;2023-12-29T15:11:49;11.30;99.90
20750;DHT22;10535;50.664;4.564;2023-12-29T15:14:31;11.40;99.90
20750;DHT22;10535;50.664;4.564;2023-12-29T15:17:05;11.30;99.90
20750;DHT22;10535;50.664;4.564;2023-12-29T15:22:48;11.30;99.90
20750;DHT22;10535;50.664;4.564;2023-12-29T15:25:17;11.30;99.90
20750;DHT22;10535;50.664;4.564;2023-12-29T15:31:29;11.20;99.90
20750;DHT22;10535;50.664;4.564;2023-12-29T15:46:17;11.00;99.90
20750;DHT22;10535;50.664;4.564;2023-12-29T15:48:53;11.00;99.90
20750;DHT22;10535;50.664;4.564;2023-12-29T15:51:25;10.80;99.90
20750;DHT22;10535;50.664;4.564;2023-12-29T15:54:36;10.80;99.90
20750;DHT22;10535;50.664;4.564;2023-12-29T15:57:05;11.00;99.90
20750;DHT22;10535;50.664;4.564;2023-12-29T15:59:39;11.00;99.90
20750;DHT22;10535;50.664;4.564;2023-12-29T16:02:06;11.00;99.90
20750;DHT22;10535;50.664;4.564;2023-12-29T16:04:33;10.90;99.90
20750;DHT22;10535;50.664;4.564;2023-12-29T16:07:07;10.90;99.90
20750;DHT22;10535;50.664;4.564;2023-12-29T16:09:58;10.80;99.90
20750;DHT22;10535;50.664;4.564;2023-12-29T16:12:28;10.70;99.90
20750;DHT22;10535;50.664;4.564;2023-12-29T16:17:38;10.60;99.90
20750;DHT22;10535;50.664;4.564;2023-12-29T16:20:07;10.50;99.90
20750;DHT22;10535;50.664;4.564;2023-12-29T16:22:33;10.60;99.90
20750;DHT22;10535;50.664;4.564;2023-12-29T16:25:01;10.60;99.90
20750;DHT22;10535;50.664;4.564;2023-12-29T16:27:28;10.60;99.90
20750;DHT22;10535;50.664;4.564;2023-12-29T16:29:54;10.60;99.90
20750;DHT22;10535;50.664;4.564;2023-12-29T16:32:23;10.60;99.90
20750;DHT22;10535;50.664;4.564;2023-12-29T16:34:49;10.60;99.90
20750;DHT22;10535;50.664;4.564;2023-12-29T16:37:14;10.60;99.90
20750;DHT22;10535;50.664;4.564;2023-12-29T16:39:40;10.60;99.90
20750;DHT22;10535;50.664;4.564;2023-12-29T16:42:09;10.70;99.90
20750;DHT22;10535;50.664;4.564;2023-12-29T16:44:35;10.60;99.90
20750;DHT22;10535;50.664;4.564;2023-12-29T16:50:24;10.70;99.90
20750;DHT22;10535;50.664;4.564;2023-12-29T16:52:50;10.70;99.90
20750;DHT22;10535;50.664;4.564;2023-12-29T16:55:15;10.70;99.90
20750;DHT22;10535;50.664;4.564;2023-12-29T16:57:41;10.80;99.90
20750;DHT22;10535;50.664;4.564;2023-12-29T17:00:07;10.90;99.90
20750;DHT22;10535;50.664;4.564;2023-12-29T17:02:35;10.70;99.90
20750;DHT22;10535;50.664;4.564;2023-12-29T17:05:02;10.90;99.90
20750;DHT22;10535;50.664;4.564;2023-12-29T17:07:29;10.80;99.90
20750;DHT22;10535;50.664;4.564;2023-12-29T17:09:59;10.90;99.90
20750;DHT22;10535;50.664;4.564;2023-12-29T17:12:26;10.80;99.90
20750;DHT22;10535;50.664;4.564;2023-12-29T17:14:51;10.80;99.90
20750;DHT22;10535;50.664;4.564;2023-12-29T17:17:17;10.70;99.90
20750;DHT22;10535;50.664;4.564;2023-12-29T17:19:43;10.70;99.90
20750;DHT22;10535;50.664;4.564;2023-12-29T17:22:09;10.70;99.90
20750;DHT22;10535;50.664;4.564;2023-12-29T17:24:44;10.80;99.90
20750;DHT22;10535;50.664;4.564;2023-12-29T17:27:12;10.90;99.90
20750;DHT22;10535;50.664;4.564;2023-12-29T17:29:40;10.90;99.90
20750;DHT22;10535;50.664;4.564;2023-12-29T17:32:07;10.80;99.90
20750;DHT22;10535;50.664;4.564;2023-12-29T17:34:34;10.80;99.90
20750;DHT22;10535;50.664;4.564;2023-12-29T17:37:03;10.90;99.90
20750;DHT22;10535;50.664;4.564;2023-12-29T17:39:29;10.80;99.90
20750;DHT22;10535;50.664;4.564;2023-12-29T17:41:55;10.80;99.90
20750;DHT22;10535;50.664;4.564;2023-12-29T17:44:21;10.80;99.90
20750;DHT22;10535;50.664;4.564;2023-12-29T17:47:01;10.90;99.90
20750;DHT22;10535;50.664;4.564;2023-12-29T17:49:34;11.00;99.90
20750;DHT22;10535;50.664;4.564;2023-12-29T17:52:04;10.90;99.90
20750;DHT22;10535;50.664;4.564;2023-12-29T17:54:32;10.90;99.90
20750;DHT22;10535;50.664;4.564;2023-12-29T17:57:13;10.90;99.90
20750;DHT22;10535;50.664;4.564;2023-12-29T18:00:22;11.00;99.90
20750;DHT22;10535;50.664;4.564;2023-12-29T18:02:58;10.80;99.90
20750;DHT22;10535;50.664;4.564;2023-12-29T18:05:33;10.70;99.90
20750;DHT22;10535;50.664;4.564;2023-12-29T18:08:35;10.70;99.90
20750;DHT22;10535;50.664;4.564;2023-12-29T18:11:12;10.60;99.90
20750;DHT22;10535;50.664;4.564;2023-12-29T18:13:53;10.70;99.90
20750;DHT22;10535;50.664;4.564;2023-12-29T18:16:23;10.70;99.90
20750;DHT22;10535;50.664;4.564;2023-12-29T18:19:00;10.60;99.90
20750;DHT22;10535;50.664;4.564;2023-12-29T18:21:30;10.70;99.90
20750;DHT22;10535;50.664;4.564;2023-12-29T18:24:23;10.80;99.90
20750;DHT22;10535;50.664;4.564;2023-12-29T18:26:58;10.70;99.90
20750;DHT22;10535;50.664;4.564;2023-12-29T18:29:55;10.80;99.90
20750;DHT22;10535;50.664;4.564;2023-12-29T18:32:21;10.90;99.90
20750;DHT22;10535;50.664;4.564;2023-12-29T18:34:50;10.80;99.90
20750;DHT22;10535;50.664;4.564;2023-12-29T18:37:45;10.70;99.90
20750;DHT22;10535;50.664;4.564;2023-12-29T18:40:41;10.60;99.90
20750;DHT22;10535;50.664;4.564;2023-12-29T18:43:47;10.50;99.90
20750;DHT22;10535;50.664;4.564;2023-12-29T18:46:39;10.30;99.90
20750;DHT22;10535;50.664;4.564;2023-12-29T18:49:40;10.20;99.90
20750;DHT22;10535;50.664;4.564;2023-12-29T18:52:47;10.20;99.90
20750;DHT22;10535;50.664;4.564;2023-12-29T18:55:22;10.10;99.90
20750;DHT22;10535;50.664;4.564;2023-12-29T18:57:50;10.10;99.90
20750;DHT22;10535;50.664;4.564;2023-12-29T19:00:24;10.10;99.90
20750;DHT22;10535;50.664;4.564;2023-12-29T19:03:01;10.00;99.90
20750;DHT22;10535;50.664;4.564;2023-12-29T19:08:20;9.90;99.90
20750;DHT22;10535;50.664;4.564;2023-12-29T19:10:46;9.90;99.90
20750;DHT22;10535;50.664;4.564;2023-12-29T19:13:13;9.80;99.90
20750;DHT22;10535;50.664;4.564;2023-12-29T19:19:17;9.80;99.90
20750;DHT22;10535;50.664;4.564;2023-12-29T19:22:16;9.80;99.90
20750;DHT22;10535;50.664;4.564;2023-12-29T19:25:20;10.00;99.90
20750;DHT22;10535;50.664;4.564;2023-12-29T19:28:08;10.00;99.90
20750;DHT22;10535;50.664;4.564;2023-12-29T19:30:45;9.90;99.90
20750;DHT22;10535;50.664;4.564;2023-12-29T19:33:31;10.00;99.90
20750;DHT22;10535;50.664;4.564;2023-12-29T19:36:00;10.00;99.90
20750;DHT22;10535;50.664;4.564;2023-12-29T19:38:32;10.00;99.90
20750;DHT22;10535;50.664;4.564;2023-12-29T19:41:20;10.20;99.90
20750;DHT22;10535;50.664;4.564;2023-12-29T19:43:55;10.20;99.90
20750;DHT22;10535;50.664;4.564;2023-12-29T19:46:33;10.30;99.90
20750;DHT22;10535;50.664;4.564;2023-12-29T19:49:21;10.50;99.90
20750;DHT22;10535;50.664;4.564;2023-12-29T19:51:49;10.50;99.90
20750;DHT22;10535;50.664;4.564;2023-12-29T19:54:17;10.50;99.90
20750;DHT22;10535;50.664;4.564;2023-12-29T19:56:50;10.60;99.90
20750;DHT22;10535;50.664;4.564;2023-12-29T19:59:33;10.70;99.90
20750;DHT22;10535;50.664;4.564;2023-12-29T20:02:02;10.70;99.90
20750;DHT22;10535;50.664;4.564;2023-12-29T20:05:18;10.60;99.90
20750;DHT22;10535;50.664;4.564;2023-12-29T20:07:49;10.60;99.90
20750;DHT22;10535;50.664;4.564;2023-12-29T20:10:48;10.70;99.90
20750;DHT22;10535;50.664;4.564;2023-12-29T20:13:16;10.50;99.90
20750;DHT22;10535;50.664;4.564;2023-12-29T20:15:43;9.40;99.90
20750;DHT22;10535;50.664;4.564;2023-12-29T20:18:10;8.90;99.90
20750;DHT22;10535;50.664;4.564;2023-12-29T20:20:39;8.50;99.90
20750;DHT22;10535;50.664;4.564;2023-12-29T20:23:17;8.40;99.90
20750;DHT22;10535;50.664;4.564;2023-12-29T20:25:53;8.30;99.90
20750;DHT22;10535;50.664;4.564;2023-12-29T20:28:22;8.30;99.90
20750;DHT22;10535;50.664;4.564;2023-12-29T20:30:49;8.40;99.90
20750;DHT22;10535;50.664;4.564;2023-12-29T20:33:15;8.60;99.90
20750;DHT22;10535;50.664;4.564;2023-12-29T20:35:41;8.80;99.90
20750;DHT22;10535;50.664;4.564;2023-12-29T20:38:09;8.90;99.90
20750;DHT22;10535;50.664;4.564;2023-12-29T20:40:40;9.00;99.90
20750;DHT22;10535;50.664;4.564;2023-12-29T20:43:06;9.10;99.90